createdAt,value
2022-09-07T00:07:59.393Z,100.00
2022-09-07T00:23:01.630Z,100.00
2022-09-07T00:38:03.889Z,100.00
2022-09-07T00:53:10.974Z,100.00
2022-09-07T01:08:13.339Z,100.00
2022-09-07T01:23:36.858Z,100.00
2022-09-07T01:38:41.920Z,100.00
2022-09-07T01:53:47.986Z,100.00
2022-09-07T02:09:00.095Z,100.00
2022-09-07T02:24:08.484Z,100.00
2022-09-07T02:39:10.783Z,100.00
2022-09-07T02:54:28.085Z,100.00
2022-09-07T03:09:32.431Z,100.00
2022-09-07T03:24:34.683Z,100.00
2022-09-07T03:39:37.227Z,100.00
2022-09-07T03:54:39.924Z,100.00
2022-09-07T04:09:42.200Z,100.00
2022-09-07T04:24:44.468Z,100.00
2022-09-07T04:39:46.725Z,100.00
2022-09-07T04:54:50.620Z,100.00
2022-09-07T05:09:52.911Z,100.00
2022-09-07T05:24:55.195Z,100.00
2022-09-07T05:39:58.258Z,100.00
2022-09-07T05:55:19.316Z,100.00
2022-09-07T06:25:49.269Z,100.00
2022-09-07T06:56:15.206Z,66.25
2022-09-07T07:11:17.415Z,60.58
2022-09-07T07:26:21.100Z,64.87
2022-09-07T07:56:48.171Z,86.81
2022-09-07T08:11:50.357Z,66.76
2022-09-07T08:26:52.720Z,61.72
2022-09-07T08:42:23.212Z,72.47
2022-09-07T08:57:29.202Z,61.65
2022-09-07T09:12:55.628Z,56.90
2022-09-07T09:27:58.093Z,63.03
2022-09-07T09:43:21.552Z,69.35
2022-09-07T10:13:55.698Z,57.69
2022-09-07T10:29:23.728Z,74.96
2022-09-07T10:44:44.665Z,81.12
2022-09-07T11:15:16.921Z,53.09
2022-09-07T11:30:23.881Z,53.29
2022-09-07T11:45:33.800Z,47.73
2022-09-07T12:00:48.658Z,56.31
2022-09-07T12:15:53.834Z,51.19
2022-09-07T12:31:05.955Z,53.70
2022-09-07T12:46:19.566Z,45.40
2022-09-07T13:01:44.232Z,51.20
2022-09-07T13:32:21.051Z,53.93
2022-09-07T13:47:41.187Z,53.90
2022-09-07T14:02:43.430Z,54.87
2022-09-07T14:17:45.827Z,55.34
2022-09-07T14:32:48.952Z,51.61
2022-09-07T14:47:55.038Z,50.94
2022-09-07T15:02:57.191Z,52.37
2022-09-07T15:18:06.046Z,51.73
2022-09-07T15:33:11.479Z,51.68
2022-09-07T15:48:18.036Z,49.66
2022-09-07T16:03:20.287Z,53.86
2022-09-07T16:18:23.662Z,53.65
2022-09-07T16:33:34.399Z,57.08
2022-09-07T16:48:38.963Z,58.65
2022-09-07T17:03:41.229Z,58.74
2022-09-07T17:34:05.713Z,62.13
2022-09-07T17:49:09.996Z,67.15
2022-09-07T18:04:13.159Z,71.11
2022-09-07T18:19:15.602Z,75.00
2022-09-07T18:34:17.758Z,75.84
2022-09-07T18:49:20.389Z,82.87
2022-09-07T19:04:22.950Z,82.46
2022-09-07T19:19:26.466Z,100.00
2022-09-07T19:34:28.629Z,100.00
2022-09-07T19:49:30.788Z,100.00
2022-09-07T20:04:32.983Z,100.00
2022-09-07T20:19:35.174Z,100.00
2022-09-07T20:34:37.593Z,100.00
2022-09-07T20:49:39.791Z,100.00
2022-09-07T21:04:42.608Z,100.00
2022-09-07T21:19:44.793Z,100.00
2022-09-07T21:34:46.990Z,100.00
2022-09-07T21:49:49.176Z,90.09
2022-09-07T22:04:51.330Z,100.00
2022-09-07T22:19:53.519Z,100.00
2022-09-07T22:34:55.711Z,100.00
2022-09-07T22:50:00.234Z,100.00
2022-09-07T23:05:03.887Z,100.00
2022-09-07T23:20:06.648Z,100.00
2022-09-07T23:35:11.688Z,100.00
2022-09-07T23:50:15.938Z,100.00
